createdAt,value
2017-11-19T00:00:39.985Z,5.87
2017-11-19T00:03:06.954Z,2.93
2017-11-19T00:05:33.343Z,5.70
2017-11-19T00:07:59.595Z,6.60
2017-11-19T00:10:25.930Z,7.70
2017-11-19T00:12:52.152Z,5.10
2017-11-19T00:15:19.241Z,6.27
2017-11-19T00:17:45.566Z,10.50
2017-11-19T00:20:11.923Z,9.07
2017-11-19T00:22:38.244Z,10.50
2017-11-19T00:25:04.620Z,10.13
2017-11-19T00:27:30.936Z,9.43
2017-11-19T00:29:57.258Z,9.47
2017-11-19T00:32:23.604Z,10.60
2017-11-19T00:34:49.960Z,7.83
2017-11-19T00:37:17.076Z,10.07
2017-11-19T00:39:43.404Z,6.50
2017-11-19T00:42:09.707Z,10.20
2017-11-19T00:44:36.034Z,9.37
2017-11-19T00:47:02.346Z,10.43
2017-11-19T00:49:29.488Z,10.97
2017-11-19T00:51:56.547Z,17.03
2017-11-19T00:54:22.817Z,8.87
2017-11-19T00:56:49.132Z,10.07
2017-11-19T00:59:15.463Z,11.40
2017-11-19T01:01:41.815Z,13.77
2017-11-19T01:04:08.146Z,14.10
2017-11-19T01:06:35.229Z,12.33
2017-11-19T01:09:01.591Z,8.30
2017-11-19T01:11:27.927Z,14.13
2017-11-19T01:13:54.222Z,9.73
2017-11-19T01:16:21.249Z,10.40
2017-11-19T01:18:47.538Z,8.83
2017-11-19T01:21:13.820Z,9.30
2017-11-19T01:23:40.848Z,14.40
2017-11-19T01:26:07.149Z,9.07
2017-11-19T01:28:33.420Z,10.27
2017-11-19T01:30:59.769Z,11.70
2017-11-19T01:33:26.084Z,9.77
2017-11-19T01:35:53.145Z,11.03
2017-11-19T01:38:19.462Z,10.17
2017-11-19T01:40:46.801Z,12.07
2017-11-19T01:43:13.316Z,13.90
2017-11-19T01:45:39.658Z,6.80
2017-11-19T01:48:05.960Z,15.50
2017-11-19T01:50:32.303Z,10.53
2017-11-19T01:52:58.583Z,8.47
2017-11-19T01:55:24.914Z,11.20
2017-11-19T01:57:51.206Z,10.70
2017-11-19T02:00:17.516Z,11.23
2017-11-19T02:02:43.843Z,12.27
2017-11-19T02:05:10.504Z,12.43
2017-11-19T02:07:37.885Z,14.60
2017-11-19T02:10:04.264Z,12.07
2017-11-19T02:12:30.553Z,14.17
2017-11-19T02:14:56.875Z,9.63
2017-11-19T02:17:23.253Z,11.43
2017-11-19T02:19:49.583Z,7.63
2017-11-19T02:22:23.052Z,8.97
2017-11-19T02:24:49.546Z,10.50
2017-11-19T02:27:15.831Z,9.33
2017-11-19T02:29:42.123Z,10.93
2017-11-19T02:32:09.281Z,11.80
2017-11-19T02:34:36.341Z,10.33
2017-11-19T02:37:02.666Z,10.83
2017-11-19T02:39:29.765Z,8.43
2017-11-19T02:41:56.083Z,8.40
2017-11-19T02:44:22.367Z,11.93
2017-11-19T02:46:49.567Z,12.20
2017-11-19T02:49:15.855Z,8.70
2017-11-19T02:51:42.890Z,13.57
2017-11-19T02:54:09.929Z,8.47
2017-11-19T02:56:36.967Z,8.87
2017-11-19T02:59:04.741Z,8.10
2017-11-19T03:01:31.053Z,7.77
2017-11-19T03:03:58.126Z,11.97
2017-11-19T03:06:24.487Z,9.10
2017-11-19T03:08:50.837Z,9.13
2017-11-19T03:11:17.163Z,9.00
2017-11-19T03:13:43.454Z,9.77
2017-11-19T03:16:09.781Z,7.30
2017-11-19T03:18:36.082Z,14.10
2017-11-19T03:21:02.419Z,10.07
2017-11-19T03:23:29.508Z,8.73
2017-11-19T03:25:55.855Z,8.07
2017-11-19T03:28:22.165Z,10.10
2017-11-19T03:30:48.680Z,11.07
2017-11-19T03:33:15.013Z,9.77
2017-11-19T03:35:41.315Z,6.20
2017-11-19T03:38:07.602Z,8.83
2017-11-19T03:40:34.041Z,13.73
2017-11-19T03:43:00.341Z,7.33
2017-11-19T03:45:26.652Z,13.17
2017-11-19T03:47:52.944Z,9.70
2017-11-19T03:50:19.286Z,7.77
2017-11-19T03:52:45.620Z,7.97
2017-11-19T03:55:11.891Z,8.87
2017-11-19T03:57:38.948Z,6.60
2017-11-19T04:00:05.310Z,8.20
2017-11-19T04:02:31.611Z,7.17
2017-11-19T04:04:57.887Z,8.93
2017-11-19T04:07:24.198Z,12.27
2017-11-19T04:09:50.643Z,15.57
2017-11-19T04:12:16.934Z,11.07
2017-11-19T04:14:43.263Z,7.50
2017-11-19T04:17:09.570Z,12.60
2017-11-19T04:19:36.607Z,6.40
2017-11-19T04:22:02.901Z,4.97
2017-11-19T04:24:29.194Z,7.90
2017-11-19T04:26:56.435Z,11.40
2017-11-19T04:29:23.494Z,7.90
2017-11-19T04:31:49.820Z,8.63
2017-11-19T04:34:16.185Z,8.37
2017-11-19T04:36:42.525Z,6.20
2017-11-19T04:39:08.851Z,7.63
2017-11-19T04:41:35.166Z,8.80
2017-11-19T04:44:01.541Z,8.87
2017-11-19T04:46:27.853Z,8.03
2017-11-19T04:48:54.155Z,9.27
2017-11-19T04:51:20.475Z,9.10
2017-11-19T04:53:46.778Z,12.07
2017-11-19T04:56:13.132Z,8.23
2017-11-19T04:58:39.436Z,12.90
2017-11-19T05:01:05.718Z,7.80
2017-11-19T05:03:32.005Z,10.93
2017-11-19T05:05:59.779Z,8.20
2017-11-19T05:08:26.820Z,7.07
2017-11-19T05:10:53.203Z,8.07
2017-11-19T05:13:19.495Z,7.37
2017-11-19T05:15:45.803Z,9.43
2017-11-19T05:18:12.853Z,11.17
2017-11-19T05:20:39.897Z,7.93
2017-11-19T05:23:06.947Z,13.13
2017-11-19T05:25:34.098Z,14.00
2017-11-19T05:28:01.204Z,7.17
2017-11-19T05:30:27.522Z,11.47
2017-11-19T05:32:53.814Z,7.10
2017-11-19T05:35:20.875Z,11.00
2017-11-19T05:37:47.198Z,8.17
2017-11-19T05:40:13.547Z,13.90
2017-11-19T05:42:40.575Z,12.17
2017-11-19T05:45:06.865Z,8.20
2017-11-19T05:47:33.159Z,10.03
2017-11-19T05:49:59.702Z,8.13
2017-11-19T05:52:26.022Z,11.77
2017-11-19T05:54:52.297Z,9.63
2017-11-19T05:57:18.595Z,5.53
2017-11-19T05:59:44.941Z,9.63
2017-11-19T06:02:11.247Z,10.90
2017-11-19T06:04:37.527Z,7.90
2017-11-19T06:07:04.564Z,13.57
2017-11-19T06:09:30.907Z,14.40
2017-11-19T06:11:57.950Z,7.17
2017-11-19T06:14:24.991Z,10.50
2017-11-19T06:16:51.317Z,13.07
2017-11-19T06:19:17.612Z,9.23
2017-11-19T06:21:43.927Z,10.43
2017-11-19T06:24:10.437Z,8.30
2017-11-19T06:26:37.485Z,8.80
2017-11-19T06:29:03.939Z,12.63
2017-11-19T06:31:30.236Z,12.33
2017-11-19T06:33:57.345Z,9.27
2017-11-19T06:36:23.651Z,11.63
2017-11-19T06:38:49.930Z,11.40
2017-11-19T06:41:16.352Z,10.77
2017-11-19T06:43:42.646Z,6.40
2017-11-19T06:46:09.134Z,8.37
2017-11-19T06:48:36.414Z,8.53
2017-11-19T06:51:02.803Z,8.37
2017-11-19T06:53:29.171Z,10.23
2017-11-19T06:55:55.504Z,7.50
2017-11-19T06:58:22.059Z,6.50
2017-11-19T07:00:48.355Z,8.83
2017-11-19T07:03:15.433Z,8.97
2017-11-19T07:05:41.725Z,7.53
2017-11-19T07:08:08.782Z,9.63
2017-11-19T07:10:35.830Z,9.27
2017-11-19T07:13:02.963Z,10.83
2017-11-19T07:15:36.380Z,11.20
2017-11-19T07:18:02.887Z,11.37
2017-11-19T07:20:29.232Z,7.33
2017-11-19T07:22:55.617Z,10.10
2017-11-19T07:25:21.940Z,10.13
2017-11-19T07:27:48.321Z,8.57
2017-11-19T07:30:15.421Z,7.00
2017-11-19T07:32:41.785Z,8.13
2017-11-19T07:35:08.111Z,11.97
2017-11-19T07:37:35.246Z,9.70
2017-11-19T07:40:02.094Z,9.43
2017-11-19T07:42:29.976Z,6.93
2017-11-19T07:44:56.313Z,6.93
2017-11-19T07:47:22.642Z,7.00
2017-11-19T07:49:49.131Z,12.37
2017-11-19T07:52:15.459Z,7.80
2017-11-19T07:54:41.790Z,11.17
2017-11-19T07:57:08.209Z,10.67
2017-11-19T07:59:34.538Z,8.90
2017-11-19T08:02:00.847Z,8.07
2017-11-19T08:04:27.953Z,7.53
2017-11-19T08:06:54.334Z,6.20
2017-11-19T08:09:20.703Z,7.57
2017-11-19T08:11:47.177Z,8.00
2017-11-19T08:14:14.239Z,6.97
2017-11-19T08:16:41.370Z,5.97
2017-11-19T08:19:07.690Z,8.47
2017-11-19T08:21:34.019Z,5.83
2017-11-19T08:24:00.416Z,8.23
2017-11-19T08:26:26.756Z,9.23
2017-11-19T08:28:53.098Z,8.10
2017-11-19T08:31:19.516Z,5.63
2017-11-19T08:33:45.841Z,4.80
2017-11-19T08:36:12.218Z,9.30
2017-11-19T08:38:38.555Z,7.87
2017-11-19T08:41:04.894Z,9.80
2017-11-19T08:43:31.346Z,7.60
2017-11-19T08:45:57.749Z,6.00
2017-11-19T08:48:24.094Z,5.90
2017-11-19T08:50:50.439Z,7.13
2017-11-19T08:53:16.835Z,7.57
2017-11-19T08:55:43.929Z,7.33
2017-11-19T08:58:10.245Z,7.20
2017-11-19T09:00:36.622Z,10.37
2017-11-19T09:03:02.970Z,7.33
2017-11-19T09:05:29.298Z,7.90
2017-11-19T09:07:55.610Z,7.77
2017-11-19T09:10:21.992Z,7.10
2017-11-19T09:12:48.408Z,7.87
2017-11-19T09:15:15.592Z,8.80
2017-11-19T09:17:41.980Z,7.40
2017-11-19T09:20:08.323Z,8.13
2017-11-19T09:22:35.609Z,6.90
2017-11-19T09:25:02.002Z,12.63
2017-11-19T09:27:28.516Z,6.63
2017-11-19T09:29:54.852Z,6.23
2017-11-19T09:32:21.221Z,11.00
2017-11-19T09:34:47.715Z,6.17
2017-11-19T09:37:14.916Z,10.77
2017-11-19T09:39:42.168Z,6.33
2017-11-19T09:42:08.525Z,12.90
2017-11-19T09:44:34.924Z,8.37
2017-11-19T09:47:02.299Z,8.67
2017-11-19T09:49:28.584Z,12.63
2017-11-19T09:51:55.703Z,14.83
2017-11-19T09:54:22.003Z,9.53
2017-11-19T09:56:48.313Z,16.77
2017-11-19T09:59:14.669Z,8.90
2017-11-19T10:01:41.122Z,12.17
2017-11-19T10:04:07.619Z,16.80
2017-11-19T10:06:34.008Z,11.40
2017-11-19T10:09:00.510Z,12.37
2017-11-19T10:11:35.103Z,10.73
2017-11-19T10:14:01.413Z,18.57
2017-11-19T10:16:28.511Z,12.63
2017-11-19T10:18:54.823Z,11.83
2017-11-19T10:21:21.138Z,7.47
2017-11-19T10:23:48.179Z,12.80
2017-11-19T10:26:15.244Z,9.17
2017-11-19T10:28:41.542Z,10.40
2017-11-19T10:31:08.846Z,9.67
2017-11-19T10:33:35.200Z,12.03
2017-11-19T10:36:01.498Z,16.40
2017-11-19T10:38:27.811Z,11.13
2017-11-19T10:40:54.197Z,15.00
2017-11-19T10:43:20.581Z,8.43
2017-11-19T10:45:47.001Z,13.40
2017-11-19T10:48:13.350Z,12.07
2017-11-19T10:50:39.669Z,11.83
2017-11-19T10:53:05.996Z,11.30
2017-11-19T10:55:33.065Z,10.60
2017-11-19T10:57:59.355Z,11.90
2017-11-19T11:00:26.419Z,15.47
2017-11-19T11:02:52.767Z,13.43
2017-11-19T11:05:19.066Z,12.97
2017-11-19T11:07:46.137Z,10.60
2017-11-19T11:10:12.446Z,15.50
2017-11-19T11:12:38.790Z,11.77
2017-11-19T11:15:05.128Z,13.77
2017-11-19T11:17:31.450Z,10.80
2017-11-19T11:19:57.772Z,8.70
2017-11-19T11:22:24.864Z,11.80
2017-11-19T11:24:51.199Z,9.40
2017-11-19T11:27:17.520Z,10.10
2017-11-19T11:29:43.835Z,6.90
2017-11-19T11:32:10.133Z,9.90
2017-11-19T11:34:37.228Z,9.20
2017-11-19T11:37:04.364Z,6.97
2017-11-19T11:39:30.692Z,7.23
2017-11-19T11:41:57.021Z,6.67
2017-11-19T11:44:23.345Z,10.07
2017-11-19T11:46:49.679Z,11.67
2017-11-19T11:49:16.089Z,9.43
2017-11-19T11:51:42.413Z,6.20
2017-11-19T11:54:09.498Z,7.20
2017-11-19T11:56:35.803Z,5.10
2017-11-19T11:59:02.110Z,12.57
2017-11-19T12:01:28.419Z,9.60
2017-11-19T12:03:54.705Z,6.47
2017-11-19T12:06:21.017Z,6.70
2017-11-19T12:08:48.078Z,5.23
2017-11-19T12:11:14.378Z,5.37
2017-11-19T12:13:41.463Z,6.63
2017-11-19T12:16:07.855Z,7.73
2017-11-19T12:18:34.197Z,5.40
2017-11-19T12:21:00.509Z,7.03
2017-11-19T12:23:26.828Z,4.33
2017-11-19T12:25:53.175Z,4.43
2017-11-19T12:28:19.517Z,6.40
2017-11-19T12:30:46.580Z,3.50
2017-11-19T12:33:12.932Z,2.70
2017-11-19T12:35:39.276Z,12.20
2017-11-19T12:38:05.588Z,6.20
2017-11-19T12:40:31.906Z,4.57
2017-11-19T12:42:58.223Z,5.47
2017-11-19T12:45:25.264Z,6.93
2017-11-19T12:47:52.338Z,4.77
2017-11-19T12:50:18.667Z,9.07
2017-11-19T12:52:45.028Z,5.70
2017-11-19T12:55:11.361Z,5.60
2017-11-19T12:57:37.694Z,4.90
2017-11-19T13:00:03.991Z,4.83
2017-11-19T13:02:30.318Z,4.33
2017-11-19T13:04:56.615Z,9.67
2017-11-19T13:07:23.686Z,5.27
2017-11-19T13:09:50.719Z,3.70
2017-11-19T13:12:17.782Z,4.30
2017-11-19T13:14:44.813Z,6.33
2017-11-19T13:17:11.877Z,8.77
2017-11-19T13:19:38.213Z,5.13
2017-11-19T13:22:04.524Z,6.33
2017-11-19T13:24:31.577Z,4.40
2017-11-19T13:26:58.631Z,4.20
2017-11-19T13:29:24.934Z,9.03
2017-11-19T13:31:52.002Z,3.70
2017-11-19T13:34:18.315Z,7.23
2017-11-19T13:36:45.385Z,3.30
2017-11-19T13:39:11.710Z,2.87
2017-11-19T13:41:38.747Z,4.13
2017-11-19T13:44:05.783Z,4.30
2017-11-19T13:46:32.838Z,8.53
2017-11-19T13:48:59.907Z,4.77
2017-11-19T13:51:26.251Z,5.80
2017-11-19T13:53:52.567Z,5.67
2017-11-19T13:56:18.864Z,7.43
2017-11-19T13:58:46.635Z,8.87
2017-11-19T14:01:12.939Z,7.47
2017-11-19T14:03:39.255Z,8.83
2017-11-19T14:06:05.549Z,7.77
2017-11-19T14:08:32.585Z,5.77
2017-11-19T14:10:58.904Z,7.37
2017-11-19T14:13:25.963Z,8.30
2017-11-19T14:15:52.986Z,6.60
2017-11-19T14:18:19.291Z,8.50
2017-11-19T14:20:45.563Z,11.33
2017-11-19T14:23:12.611Z,5.57
2017-11-19T14:25:39.645Z,7.57
2017-11-19T14:28:05.924Z,6.50
2017-11-19T14:30:32.232Z,5.63
2017-11-19T14:32:58.543Z,8.20
2017-11-19T14:35:25.610Z,3.47
2017-11-19T14:37:51.911Z,5.87
2017-11-19T14:40:18.964Z,4.50
2017-11-19T14:42:45.991Z,5.47
2017-11-19T14:45:12.292Z,10.70
2017-11-19T14:47:38.587Z,5.70
2017-11-19T14:50:05.613Z,8.03
2017-11-19T14:52:32.642Z,6.43
2017-11-19T14:54:58.945Z,5.50
2017-11-19T14:57:25.234Z,3.90
2017-11-19T14:59:51.547Z,4.67
2017-11-19T15:02:17.845Z,4.80
2017-11-19T15:04:44.344Z,5.33
2017-11-19T15:07:10.823Z,2.60
2017-11-19T15:09:37.131Z,5.07
2017-11-19T15:12:03.442Z,5.07
2017-11-19T15:14:29.761Z,5.47
2017-11-19T15:16:56.065Z,4.50
2017-11-19T15:19:22.423Z,6.57
2017-11-19T15:21:49.574Z,7.23
2017-11-19T15:24:15.882Z,6.83
2017-11-19T15:26:43.094Z,5.67
2017-11-19T15:29:09.452Z,6.60
2017-11-19T15:31:36.175Z,3.90
2017-11-19T15:34:02.628Z,3.40
2017-11-19T15:36:29.693Z,4.00
2017-11-19T15:38:56.727Z,6.57
2017-11-19T15:41:23.027Z,6.80
2017-11-19T15:43:49.299Z,5.53
2017-11-19T15:46:16.345Z,3.60
2017-11-19T15:48:43.379Z,3.07
2017-11-19T15:51:09.672Z,2.70
2017-11-19T15:53:35.981Z,2.73
2017-11-19T15:56:02.382Z,4.13
2017-11-19T15:58:28.706Z,3.40
2017-11-19T16:00:55.769Z,4.47
2017-11-19T16:03:22.099Z,3.43
2017-11-19T16:05:49.178Z,1.93
2017-11-19T16:08:15.509Z,2.67
2017-11-19T16:10:41.797Z,3.00
2017-11-19T16:13:08.124Z,4.40
2017-11-19T16:15:34.489Z,1.90
2017-11-19T16:18:00.795Z,2.90
2017-11-19T16:20:27.896Z,2.67
2017-11-19T16:22:54.213Z,4.13
2017-11-19T16:25:20.487Z,2.07
2017-11-19T16:27:46.786Z,4.00
2017-11-19T16:30:13.063Z,5.97
2017-11-19T16:32:39.457Z,2.97
2017-11-19T16:35:06.519Z,1.87
2017-11-19T16:37:32.811Z,4.57
2017-11-19T16:39:59.084Z,2.73
2017-11-19T16:42:26.116Z,4.03
2017-11-19T16:44:52.393Z,3.33
2017-11-19T16:47:18.688Z,2.90
2017-11-19T16:49:44.957Z,4.83
2017-11-19T16:52:11.272Z,11.90
2017-11-19T16:54:37.568Z,2.50
2017-11-19T16:57:05.348Z,4.00
2017-11-19T16:59:32.376Z,3.10
2017-11-19T17:01:58.646Z,2.70
2017-11-19T17:04:24.933Z,2.90
2017-11-19T17:06:51.198Z,6.47
2017-11-19T17:09:18.270Z,2.33
2017-11-19T17:11:44.613Z,3.70
2017-11-19T17:14:10.970Z,7.70
2017-11-19T17:16:37.301Z,1.70
2017-11-19T17:19:03.608Z,2.53
2017-11-19T17:21:29.896Z,2.33
2017-11-19T17:23:56.936Z,1.80
2017-11-19T17:26:23.960Z,2.80
2017-11-19T17:28:51.079Z,2.33
2017-11-19T17:31:17.642Z,3.77
2017-11-19T17:33:44.087Z,3.67
2017-11-19T17:36:16.701Z,4.37
2017-11-19T17:38:43.066Z,3.80
2017-11-19T17:41:09.471Z,5.60
2017-11-19T17:43:35.870Z,3.73
2017-11-19T17:46:02.904Z,6.60
2017-11-19T17:48:29.220Z,2.20
2017-11-19T17:50:55.531Z,3.87
2017-11-19T17:53:21.876Z,1.80
2017-11-19T17:55:48.223Z,4.70
2017-11-19T17:58:14.526Z,3.43
2017-11-19T18:00:40.845Z,2.23
2017-11-19T18:03:07.150Z,2.50
2017-11-19T18:05:33.458Z,4.20
2017-11-19T18:08:00.493Z,2.17
2017-11-19T18:10:27.547Z,3.40
2017-11-19T18:12:54.574Z,1.87
2017-11-19T18:15:20.855Z,5.23
2017-11-19T18:17:47.183Z,1.80
2017-11-19T18:20:13.608Z,1.83
2017-11-19T18:22:39.924Z,4.83
2017-11-19T18:25:06.287Z,1.50
2017-11-19T18:27:32.844Z,2.00
2017-11-19T18:29:59.937Z,2.57
2017-11-19T18:32:26.270Z,6.13
2017-11-19T18:34:52.741Z,1.57
2017-11-19T18:37:19.072Z,4.63
2017-11-19T18:39:45.415Z,2.40
2017-11-19T18:42:11.795Z,4.47
2017-11-19T18:44:38.845Z,4.40
2017-11-19T18:47:05.912Z,3.83
2017-11-19T18:49:32.236Z,3.03
2017-11-19T18:51:58.582Z,6.53
2017-11-19T18:54:24.964Z,5.20
2017-11-19T18:56:51.274Z,7.97
2017-11-19T18:59:17.610Z,6.30
2017-11-19T19:01:44.041Z,5.40
2017-11-19T19:04:10.361Z,4.80
2017-11-19T19:06:36.720Z,4.90
2017-11-19T19:09:03.062Z,2.47
2017-11-19T19:11:30.096Z,3.13
2017-11-19T19:13:56.420Z,5.00
2017-11-19T19:16:22.754Z,2.97
2017-11-19T19:18:50.549Z,2.40
2017-11-19T19:21:16.870Z,5.83
2017-11-19T19:23:43.917Z,4.10
2017-11-19T19:26:10.208Z,4.40
2017-11-19T19:28:36.499Z,5.40
2017-11-19T19:31:02.901Z,2.00
2017-11-19T19:33:29.953Z,2.43
2017-11-19T19:36:04.406Z,2.97
2017-11-19T19:38:30.701Z,3.37
2017-11-19T19:40:57.743Z,3.83
2017-11-19T19:43:24.783Z,10.33
2017-11-19T19:45:51.181Z,3.60
2017-11-19T19:48:17.560Z,6.00
2017-11-19T19:50:44.595Z,6.80
2017-11-19T19:53:10.875Z,3.40
2017-11-19T19:55:37.184Z,4.10
2017-11-19T19:58:03.756Z,4.50
2017-11-19T20:00:30.330Z,6.33
2017-11-19T20:02:57.424Z,3.90
2017-11-19T20:05:23.707Z,2.40
2017-11-19T20:07:50.920Z,3.70
2017-11-19T20:10:17.355Z,2.80
2017-11-19T20:12:43.681Z,3.00
2017-11-19T20:15:10.003Z,3.97
2017-11-19T20:17:36.278Z,5.10
2017-11-19T20:20:02.702Z,3.70
2017-11-19T20:22:28.990Z,3.20
2017-11-19T20:24:55.289Z,5.37
2017-11-19T20:27:21.694Z,2.50
2017-11-19T20:29:48.225Z,3.63
2017-11-19T20:32:14.584Z,4.13
2017-11-19T20:34:40.907Z,4.20
2017-11-19T20:37:08.005Z,2.97
2017-11-19T20:39:34.310Z,2.97
2017-11-19T20:42:00.591Z,2.63
2017-11-19T20:44:26.918Z,4.23
2017-11-19T20:46:53.187Z,3.00
2017-11-19T20:49:19.509Z,2.57
2017-11-19T20:51:45.811Z,7.17
2017-11-19T20:54:12.849Z,3.23
2017-11-19T20:56:40.632Z,6.10
2017-11-19T20:59:07.679Z,2.57
2017-11-19T21:01:34.725Z,3.23
2017-11-19T21:04:01.056Z,3.87
2017-11-19T21:06:28.338Z,3.57
2017-11-19T21:08:55.510Z,1.90
2017-11-19T21:11:21.967Z,1.53
2017-11-19T21:13:49.075Z,1.90
2017-11-19T21:16:15.374Z,3.23
2017-11-19T21:18:42.409Z,2.57
2017-11-19T21:21:08.717Z,1.63
2017-11-19T21:23:34.993Z,2.70
2017-11-19T21:26:02.041Z,2.60
2017-11-19T21:28:29.057Z,2.20
2017-11-19T21:30:55.378Z,2.30
2017-11-19T21:33:21.693Z,5.73
2017-11-19T21:35:48.002Z,2.77
2017-11-19T21:38:14.422Z,2.97
2017-11-19T21:40:40.706Z,3.20
2017-11-19T21:43:07.035Z,5.23
2017-11-19T21:45:34.082Z,3.00
2017-11-19T21:48:00.475Z,7.37
2017-11-19T21:50:26.850Z,5.83
2017-11-19T21:52:53.233Z,5.47
2017-11-19T21:55:19.521Z,2.50
2017-11-19T21:57:45.824Z,4.33
2017-11-19T22:00:12.135Z,4.37
2017-11-19T22:02:38.449Z,7.50
2017-11-19T22:05:04.763Z,6.50
2017-11-19T22:07:31.083Z,6.00
2017-11-19T22:09:58.123Z,2.27
2017-11-19T22:12:25.159Z,4.87
2017-11-19T22:14:51.463Z,3.67
2017-11-19T22:17:17.732Z,1.80
2017-11-19T22:19:44.761Z,5.20
2017-11-19T22:22:11.055Z,3.30
2017-11-19T22:24:37.360Z,4.80
2017-11-19T22:27:03.650Z,4.77
2017-11-19T22:29:29.946Z,6.27
2017-11-19T22:31:56.219Z,5.97
2017-11-19T22:34:23.256Z,4.07
2017-11-19T22:36:49.548Z,4.43
2017-11-19T22:39:15.885Z,5.10
2017-11-19T22:41:42.163Z,4.03
2017-11-19T22:44:09.446Z,5.60
2017-11-19T22:46:35.718Z,2.70
2017-11-19T22:49:01.990Z,2.07
2017-11-19T22:51:28.288Z,3.40
2017-11-19T22:53:54.562Z,5.33
2017-11-19T22:56:20.843Z,7.33
2017-11-19T22:58:47.139Z,3.53
2017-11-19T23:01:13.441Z,5.67
2017-11-19T23:03:39.730Z,3.63
2017-11-19T23:06:06.023Z,3.23
2017-11-19T23:08:32.311Z,2.97
2017-11-19T23:10:59.351Z,2.70
2017-11-19T23:13:26.381Z,3.80
2017-11-19T23:15:52.668Z,4.27
2017-11-19T23:18:18.944Z,2.87
2017-11-19T23:20:45.240Z,2.30
2017-11-19T23:23:11.534Z,3.53
2017-11-19T23:25:38.558Z,3.30
2017-11-19T23:28:05.601Z,2.90
2017-11-19T23:30:32.642Z,3.50
2017-11-19T23:32:58.946Z,2.53
2017-11-19T23:35:25.241Z,4.47
2017-11-19T23:37:51.518Z,2.00
2017-11-19T23:40:17.813Z,2.97
2017-11-19T23:42:44.181Z,4.43
2017-11-19T23:45:10.445Z,2.10
2017-11-19T23:47:37.489Z,2.83
2017-11-19T23:50:03.791Z,4.63
2017-11-19T23:52:30.083Z,4.50
2017-11-19T23:54:56.364Z,2.63
2017-11-19T23:57:22.666Z,3.50
2017-11-19T23:59:48.994Z,3.43
